createdAt,value
2024-04-05T00:37:37.450Z,84.2
2024-04-05T00:57:37.387Z,84.5
2024-04-05T01:17:37.425Z,85.4
2024-04-05T01:37:37.336Z,86.8
2024-04-05T01:57:37.283Z,89.1
2024-04-05T02:17:37.247Z,90.6
2024-04-05T02:37:37.280Z,91.1
2024-04-05T02:57:37.171Z,90.2
2024-04-05T03:17:37.131Z,90.3
2024-04-05T03:57:37.062Z,90.5
2024-04-05T04:17:37.082Z,90.5
2024-04-05T04:37:36.980Z,90.1
2024-04-05T04:57:36.962Z,90.6
2024-04-05T05:37:36.868Z,93.8
2024-04-05T05:57:36.835Z,94.4
2024-04-05T06:17:36.796Z,94.6
2024-04-05T06:37:36.763Z,94.4
2024-04-05T06:57:36.716Z,92.4
2024-04-05T07:17:36.715Z,90.1
2024-04-05T07:37:36.639Z,87.7
2024-04-05T07:57:36.614Z,87.3
2024-04-05T08:17:36.590Z,84.8
2024-04-05T08:57:36.494Z,83.1
2024-04-05T09:17:36.480Z,83.9
2024-04-05T09:37:36.521Z,81.4
2024-04-05T09:57:36.404Z,76.3
2024-04-05T10:17:36.350Z,73.8
2024-04-05T10:37:36.303Z,79.1
2024-04-05T10:57:36.243Z,78.9
2024-04-05T11:17:36.229Z,75.6
2024-04-05T11:37:36.174Z,72.7
2024-04-05T11:57:36.124Z,74
2024-04-05T12:17:36.094Z,73
2024-04-05T12:37:36.058Z,71.6
2024-04-05T12:57:35.997Z,70.5
2024-04-05T13:17:35.966Z,72.6
2024-04-05T13:37:35.928Z,73.9
2024-04-05T13:57:35.877Z,76.1
2024-04-05T14:17:35.909Z,83.2
2024-04-05T14:37:35.799Z,78.8
2024-04-05T14:57:35.765Z,74.4
2024-04-05T15:17:35.718Z,75.1
2024-04-05T15:37:35.781Z,72.8
2024-04-05T15:57:35.643Z,73
2024-04-05T16:17:35.727Z,74.3
2024-04-05T16:37:35.560Z,74.4
2024-04-05T16:57:35.535Z,75.1
2024-04-05T17:17:35.477Z,77.2
2024-04-05T17:37:35.434Z,78.5
2024-04-05T17:57:35.387Z,77.8
2024-04-05T18:17:35.414Z,77
2024-04-05T18:37:35.349Z,77.7
2024-04-05T18:57:35.266Z,78.9
2024-04-05T19:17:35.232Z,79.1
2024-04-05T19:37:35.243Z,79.8
2024-04-05T19:57:35.167Z,81.3
2024-04-05T20:17:35.117Z,81.6
2024-04-05T20:37:35.107Z,81.3
2024-04-05T20:57:35.080Z,81.6
2024-04-05T21:17:35.020Z,82
2024-04-05T21:37:34.942Z,82.3
2024-04-05T21:57:34.917Z,82
2024-04-05T22:17:34.906Z,82.4
2024-04-05T22:37:34.832Z,82.5
2024-04-05T22:57:34.796Z,82.4
2024-04-05T23:17:34.876Z,82.8
2024-04-05T23:37:34.710Z,83.1
2024-04-05T23:57:34.680Z,82.9
